sensor_id;sensor_type;location;lat;lon;timestamp;P1;durP1;ratioP1;P2;durP2;ratioP2
31906;SDS011;18455;50.858;13.662;2023-12-20T00:02:35;5.73;;;3.70;;
31906;SDS011;18455;50.858;13.662;2023-12-20T00:07:35;4.10;;;3.70;;
31906;SDS011;18455;50.858;13.662;2023-12-20T00:12:35;3.90;;;3.50;;
31906;SDS011;18455;50.858;13.662;2023-12-20T00:17:35;3.50;;;3.20;;
31906;SDS011;18455;50.858;13.662;2023-12-20T00:22:36;4.88;;;3.45;;
31906;SDS011;18455;50.858;13.662;2023-12-20T00:27:36;4.50;;;4.10;;
31906;SDS011;18455;50.858;13.662;2023-12-20T00:32:36;5.10;;;3.63;;
31906;SDS011;18455;50.858;13.662;2023-12-20T00:37:36;4.10;;;3.70;;
31906;SDS011;18455;50.858;13.662;2023-12-20T00:42:36;3.63;;;3.33;;
31906;SDS011;18455;50.858;13.662;2023-12-20T00:47:37;4.63;;;3.00;;
31906;SDS011;18455;50.858;13.662;2023-12-20T00:52:37;3.70;;;2.90;;
31906;SDS011;18455;50.858;13.662;2023-12-20T00:57:37;3.27;;;3.00;;
31906;SDS011;18455;50.858;13.662;2023-12-20T01:02:37;3.57;;;3.00;;
31906;SDS011;18455;50.858;13.662;2023-12-20T01:07:38;3.40;;;3.00;;
31906;SDS011;18455;50.858;13.662;2023-12-20T01:12:38;4.27;;;2.80;;
31906;SDS011;18455;50.858;13.662;2023-12-20T01:17:38;2.90;;;2.57;;
31906;SDS011;18455;50.858;13.662;2023-12-20T01:22:38;2.87;;;2.63;;
31906;SDS011;18455;50.858;13.662;2023-12-20T01:27:38;3.00;;;2.37;;
31906;SDS011;18455;50.858;13.662;2023-12-20T01:32:39;3.00;;;2.23;;
31906;SDS011;18455;50.858;13.662;2023-12-20T01:37:39;2.50;;;2.30;;
31906;SDS011;18455;50.858;13.662;2023-12-20T01:42:39;3.00;;;2.70;;
31906;SDS011;18455;50.858;13.662;2023-12-20T01:47:39;2.63;;;2.20;;
31906;SDS011;18455;50.858;13.662;2023-12-20T01:52:41;2.43;;;2.23;;
31906;SDS011;18455;50.858;13.662;2023-12-20T01:57:41;2.53;;;2.20;;
31906;SDS011;18455;50.858;13.662;2023-12-20T02:02:42;2.43;;;2.10;;
31906;SDS011;18455;50.858;13.662;2023-12-20T02:07:43;2.50;;;2.28;;
31906;SDS011;18455;50.858;13.662;2023-12-20T02:12:43;2.35;;;2.15;;
31906;SDS011;18455;50.858;13.662;2023-12-20T02:17:43;2.43;;;2.23;;
31906;SDS011;18455;50.858;13.662;2023-12-20T02:22:44;1.80;;;1.70;;
31906;SDS011;18455;50.858;13.662;2023-12-20T02:27:44;2.50;;;2.03;;
31906;SDS011;18455;50.858;13.662;2023-12-20T02:32:44;2.23;;;2.07;;
31906;SDS011;18455;50.858;13.662;2023-12-20T02:37:44;2.10;;;1.90;;
31906;SDS011;18455;50.858;13.662;2023-12-20T02:42:44;1.83;;;1.73;;
31906;SDS011;18455;50.858;13.662;2023-12-20T02:47:45;2.53;;;2.00;;
31906;SDS011;18455;50.858;13.662;2023-12-20T02:52:45;2.10;;;2.00;;
31906;SDS011;18455;50.858;13.662;2023-12-20T02:57:46;2.47;;;1.87;;
31906;SDS011;18455;50.858;13.662;2023-12-20T03:02:46;2.00;;;1.80;;
31906;SDS011;18455;50.858;13.662;2023-12-20T03:07:46;1.63;;;1.53;;
31906;SDS011;18455;50.858;13.662;2023-12-20T03:12:46;2.23;;;2.03;;
31906;SDS011;18455;50.858;13.662;2023-12-20T03:17:46;1.67;;;1.57;;
31906;SDS011;18455;50.858;13.662;2023-12-20T03:22:47;1.90;;;1.80;;
31906;SDS011;18455;50.858;13.662;2023-12-20T03:27:47;1.70;;;1.60;;
31906;SDS011;18455;50.858;13.662;2023-12-20T03:32:47;1.80;;;1.70;;
31906;SDS011;18455;50.858;13.662;2023-12-20T03:37:47;2.10;;;1.40;;
31906;SDS011;18455;50.858;13.662;2023-12-20T03:42:47;1.60;;;1.50;;
31906;SDS011;18455;50.858;13.662;2023-12-20T03:47:48;1.83;;;1.73;;
31906;SDS011;18455;50.858;13.662;2023-12-20T03:52:48;1.60;;;1.50;;
31906;SDS011;18455;50.858;13.662;2023-12-20T03:57:48;1.70;;;1.60;;
31906;SDS011;18455;50.858;13.662;2023-12-20T04:02:49;2.53;;;1.45;;
31906;SDS011;18455;50.858;13.662;2023-12-20T04:07:49;1.47;;;1.37;;
31906;SDS011;18455;50.858;13.662;2023-12-20T04:12:50;1.70;;;1.60;;
31906;SDS011;18455;50.858;13.662;2023-12-20T04:17:50;1.70;;;1.60;;
31906;SDS011;18455;50.858;13.662;2023-12-20T04:22:50;1.50;;;1.40;;
31906;SDS011;18455;50.858;13.662;2023-12-20T04:27:51;1.50;;;1.40;;
31906;SDS011;18455;50.858;13.662;2023-12-20T04:32:51;4.27;;;3.90;;
31906;SDS011;18455;50.858;13.662;2023-12-20T04:37:51;3.27;;;3.07;;
31906;SDS011;18455;50.858;13.662;2023-12-20T04:42:52;2.17;;;1.97;;
31906;SDS011;18455;50.858;13.662;2023-12-20T04:47:52;1.60;;;1.50;;
31906;SDS011;18455;50.858;13.662;2023-12-20T04:52:52;5.93;;;4.70;;
31906;SDS011;18455;50.858;13.662;2023-12-20T04:57:52;1.80;;;1.70;;
31906;SDS011;18455;50.858;13.662;2023-12-20T05:02:53;2.13;;;1.93;;
31906;SDS011;18455;50.858;13.662;2023-12-20T05:07:53;1.60;;;1.50;;
31906;SDS011;18455;50.858;13.662;2023-12-20T05:12:53;2.00;;;1.90;;
31906;SDS011;18455;50.858;13.662;2023-12-20T05:17:53;1.63;;;1.53;;
31906;SDS011;18455;50.858;13.662;2023-12-20T05:22:53;1.60;;;1.50;;
31906;SDS011;18455;50.858;13.662;2023-12-20T05:27:53;1.70;;;1.60;;
31906;SDS011;18455;50.858;13.662;2023-12-20T05:32:54;1.70;;;1.60;;
31906;SDS011;18455;50.858;13.662;2023-12-20T05:37:54;1.57;;;1.47;;
31906;SDS011;18455;50.858;13.662;2023-12-20T05:42:54;1.40;;;1.40;;
31906;SDS011;18455;50.858;13.662;2023-12-20T05:47:54;1.73;;;1.63;;
31906;SDS011;18455;50.858;13.662;2023-12-20T05:52:54;1.57;;;1.47;;
31906;SDS011;18455;50.858;13.662;2023-12-20T05:57:55;1.93;;;1.83;;
31906;SDS011;18455;50.858;13.662;2023-12-20T06:02:55;1.80;;;1.70;;
31906;SDS011;18455;50.858;13.662;2023-12-20T06:07:55;1.70;;;1.60;;
31906;SDS011;18455;50.858;13.662;2023-12-20T06:12:57;1.60;;;1.50;;
31906;SDS011;18455;50.858;13.662;2023-12-20T06:17:58;1.50;;;1.40;;
31906;SDS011;18455;50.858;13.662;2023-12-20T06:22:59;1.10;;;1.10;;
31906;SDS011;18455;50.858;13.662;2023-12-20T06:27:59;1.37;;;1.33;;
31906;SDS011;18455;50.858;13.662;2023-12-20T06:32:59;1.70;;;1.60;;
31906;SDS011;18455;50.858;13.662;2023-12-20T06:37:59;1.90;;;1.80;;
31906;SDS011;18455;50.858;13.662;2023-12-20T06:43:00;1.77;;;1.67;;
31906;SDS011;18455;50.858;13.662;2023-12-20T06:48:01;5.00;;;3.70;;
31906;SDS011;18455;50.858;13.662;2023-12-20T06:53:01;3.13;;;2.50;;
31906;SDS011;18455;50.858;13.662;2023-12-20T06:58:06;2.00;;;1.80;;
31906;SDS011;18455;50.858;13.662;2023-12-20T07:03:07;2.13;;;1.93;;
31906;SDS011;18455;50.858;13.662;2023-12-20T07:08:07;2.53;;;2.33;;
31906;SDS011;18455;50.858;13.662;2023-12-20T07:13:07;3.93;;;2.90;;
31906;SDS011;18455;50.858;13.662;2023-12-20T07:18:08;3.60;;;3.30;;
31906;SDS011;18455;50.858;13.662;2023-12-20T07:23:08;4.68;;;4.20;;
31906;SDS011;18455;50.858;13.662;2023-12-20T07:28:08;5.50;;;5.00;;
31906;SDS011;18455;50.858;13.662;2023-12-20T07:33:08;6.70;;;5.67;;
31906;SDS011;18455;50.858;13.662;2023-12-20T07:38:09;6.33;;;5.50;;
31906;SDS011;18455;50.858;13.662;2023-12-20T07:43:09;8.17;;;6.10;;
31906;SDS011;18455;50.858;13.662;2023-12-20T07:48:10;5.60;;;4.97;;
31906;SDS011;18455;50.858;13.662;2023-12-20T07:53:10;5.63;;;5.03;;
31906;SDS011;18455;50.858;13.662;2023-12-20T07:58:10;4.23;;;3.73;;
31906;SDS011;18455;50.858;13.662;2023-12-20T08:03:10;7.40;;;4.00;;
31906;SDS011;18455;50.858;13.662;2023-12-20T08:08:10;5.33;;;3.50;;
31906;SDS011;18455;50.858;13.662;2023-12-20T08:13:11;3.87;;;3.50;;
31906;SDS011;18455;50.858;13.662;2023-12-20T08:18:11;5.30;;;3.40;;
31906;SDS011;18455;50.858;13.662;2023-12-20T08:23:13;6.00;;;3.03;;
31906;SDS011;18455;50.858;13.662;2023-12-20T08:28:13;4.80;;;3.00;;
31906;SDS011;18455;50.858;13.662;2023-12-20T08:33:13;3.27;;;2.77;;
31906;SDS011;18455;50.858;13.662;2023-12-20T08:38:13;4.17;;;2.33;;
31906;SDS011;18455;50.858;13.662;2023-12-20T08:43:14;5.83;;;2.00;;
31906;SDS011;18455;50.858;13.662;2023-12-20T08:48:15;5.27;;;2.50;;
31906;SDS011;18455;50.858;13.662;2023-12-20T08:53:15;2.17;;;1.77;;
31906;SDS011;18455;50.858;13.662;2023-12-20T08:58:16;6.73;;;2.33;;
31906;SDS011;18455;50.858;13.662;2023-12-20T09:03:17;3.80;;;2.00;;
31906;SDS011;18455;50.858;13.662;2023-12-20T09:08:17;5.37;;;2.30;;
31906;SDS011;18455;50.858;13.662;2023-12-20T09:13:17;4.30;;;2.37;;
31906;SDS011;18455;50.858;13.662;2023-12-20T09:18:17;3.93;;;2.27;;
31906;SDS011;18455;50.858;13.662;2023-12-20T09:23:17;4.03;;;2.20;;
31906;SDS011;18455;50.858;13.662;2023-12-20T09:28:18;7.47;;;2.00;;
31906;SDS011;18455;50.858;13.662;2023-12-20T09:33:18;4.75;;;2.10;;
31906;SDS011;18455;50.858;13.662;2023-12-20T09:38:18;2.90;;;2.03;;
31906;SDS011;18455;50.858;13.662;2023-12-20T09:43:19;6.73;;;2.47;;
31906;SDS011;18455;50.858;13.662;2023-12-20T09:48:33;6.10;;;2.37;;
31906;SDS011;18455;50.858;13.662;2023-12-20T09:53:57;3.23;;;1.57;;
31906;SDS011;18455;50.858;13.662;2023-12-20T09:58:59;3.40;;;1.93;;
31906;SDS011;18455;50.858;13.662;2023-12-20T10:03:59;3.57;;;1.80;;
31906;SDS011;18455;50.858;13.662;2023-12-20T10:09:00;7.33;;;2.90;;
31906;SDS011;18455;50.858;13.662;2023-12-20T10:14:00;5.40;;;2.03;;
31906;SDS011;18455;50.858;13.662;2023-12-20T10:19:03;2.87;;;2.10;;
31906;SDS011;18455;50.858;13.662;2023-12-20T10:24:04;3.70;;;2.97;;
31906;SDS011;18455;50.858;13.662;2023-12-20T10:29:04;6.20;;;4.10;;
31906;SDS011;18455;50.858;13.662;2023-12-20T10:34:04;7.67;;;2.93;;
31906;SDS011;18455;50.858;13.662;2023-12-20T10:39:05;8.57;;;3.30;;
31906;SDS011;18455;50.858;13.662;2023-12-20T10:44:07;5.63;;;2.60;;
31906;SDS011;18455;50.858;13.662;2023-12-20T10:49:08;6.07;;;2.40;;
31906;SDS011;18455;50.858;13.662;2023-12-20T10:54:09;5.23;;;2.70;;
31906;SDS011;18455;50.858;13.662;2023-12-20T10:59:10;5.93;;;3.00;;
31906;SDS011;18455;50.858;13.662;2023-12-20T11:04:13;4.57;;;2.63;;
31906;SDS011;18455;50.858;13.662;2023-12-20T11:09:24;5.03;;;2.20;;
31906;SDS011;18455;50.858;13.662;2023-12-20T11:14:27;3.93;;;2.20;;
31906;SDS011;18455;50.858;13.662;2023-12-20T11:19:27;3.37;;;2.20;;
31906;SDS011;18455;50.858;13.662;2023-12-20T11:24:27;4.10;;;2.17;;
31906;SDS011;18455;50.858;13.662;2023-12-20T11:29:31;4.60;;;2.10;;
31906;SDS011;18455;50.858;13.662;2023-12-20T11:34:32;4.33;;;2.23;;
31906;SDS011;18455;50.858;13.662;2023-12-20T11:39:33;4.73;;;2.10;;
31906;SDS011;18455;50.858;13.662;2023-12-20T11:44:33;7.20;;;3.63;;
31906;SDS011;18455;50.858;13.662;2023-12-20T11:49:33;7.57;;;2.60;;
31906;SDS011;18455;50.858;13.662;2023-12-20T11:54:34;5.67;;;2.03;;
31906;SDS011;18455;50.858;13.662;2023-12-20T11:59:34;4.33;;;2.80;;
31906;SDS011;18455;50.858;13.662;2023-12-20T12:04:34;7.03;;;2.40;;
31906;SDS011;18455;50.858;13.662;2023-12-20T12:09:34;9.90;;;3.03;;
31906;SDS011;18455;50.858;13.662;2023-12-20T12:14:35;5.67;;;2.23;;
31906;SDS011;18455;50.858;13.662;2023-12-20T12:19:37;7.40;;;1.50;;
31906;SDS011;18455;50.858;13.662;2023-12-20T12:24:37;6.53;;;2.10;;
31906;SDS011;18455;50.858;13.662;2023-12-20T12:29:37;3.97;;;1.63;;
31906;SDS011;18455;50.858;13.662;2023-12-20T12:34:38;4.80;;;2.90;;
31906;SDS011;18455;50.858;13.662;2023-12-20T12:39:39;4.50;;;2.60;;
31906;SDS011;18455;50.858;13.662;2023-12-20T12:44:40;4.00;;;1.60;;
31906;SDS011;18455;50.858;13.662;2023-12-20T12:49:40;3.27;;;1.90;;
31906;SDS011;18455;50.858;13.662;2023-12-20T12:54:40;3.77;;;1.97;;
31906;SDS011;18455;50.858;13.662;2023-12-20T12:59:43;6.53;;;1.93;;
31906;SDS011;18455;50.858;13.662;2023-12-20T13:04:47;3.53;;;1.80;;
31906;SDS011;18455;50.858;13.662;2023-12-20T13:09:47;8.17;;;2.67;;
31906;SDS011;18455;50.858;13.662;2023-12-20T13:14:47;3.63;;;1.83;;
31906;SDS011;18455;50.858;13.662;2023-12-20T13:19:48;7.13;;;2.23;;
31906;SDS011;18455;50.858;13.662;2023-12-20T13:24:49;5.20;;;2.27;;
31906;SDS011;18455;50.858;13.662;2023-12-20T13:29:49;5.37;;;2.10;;
31906;SDS011;18455;50.858;13.662;2023-12-20T13:34:50;3.40;;;1.60;;
31906;SDS011;18455;50.858;13.662;2023-12-20T13:39:50;3.83;;;1.90;;
31906;SDS011;18455;50.858;13.662;2023-12-20T13:44:50;5.87;;;2.10;;
31906;SDS011;18455;50.858;13.662;2023-12-20T13:49:51;5.80;;;2.80;;
31906;SDS011;18455;50.858;13.662;2023-12-20T13:54:51;8.53;;;4.20;;
31906;SDS011;18455;50.858;13.662;2023-12-20T13:59:51;7.93;;;3.40;;
31906;SDS011;18455;50.858;13.662;2023-12-20T14:04:51;6.87;;;2.20;;
31906;SDS011;18455;50.858;13.662;2023-12-20T14:09:51;6.73;;;2.03;;
31906;SDS011;18455;50.858;13.662;2023-12-20T14:14:52;4.00;;;2.03;;
31906;SDS011;18455;50.858;13.662;2023-12-20T14:19:52;5.03;;;2.10;;
31906;SDS011;18455;50.858;13.662;2023-12-20T14:24:54;2.93;;;2.00;;
31906;SDS011;18455;50.858;13.662;2023-12-20T14:29:54;5.70;;;2.43;;
31906;SDS011;18455;50.858;13.662;2023-12-20T14:34:55;14.27;;;6.47;;
31906;SDS011;18455;50.858;13.662;2023-12-20T14:39:55;4.07;;;2.40;;
31906;SDS011;18455;50.858;13.662;2023-12-20T14:44:55;2.47;;;1.93;;
31906;SDS011;18455;50.858;13.662;2023-12-20T14:49:55;5.33;;;2.00;;
31906;SDS011;18455;50.858;13.662;2023-12-20T14:54:56;6.30;;;2.27;;
31906;SDS011;18455;50.858;13.662;2023-12-20T14:59:56;8.00;;;2.00;;
31906;SDS011;18455;50.858;13.662;2023-12-20T15:04:56;5.70;;;2.07;;
31906;SDS011;18455;50.858;13.662;2023-12-20T15:09:56;3.87;;;2.00;;
31906;SDS011;18455;50.858;13.662;2023-12-20T15:14:56;4.97;;;2.20;;
31906;SDS011;18455;50.858;13.662;2023-12-20T15:19:57;3.67;;;1.90;;
31906;SDS011;18455;50.858;13.662;2023-12-20T15:24:57;3.07;;;2.00;;
31906;SDS011;18455;50.858;13.662;2023-12-20T15:29:57;4.10;;;2.27;;
31906;SDS011;18455;50.858;13.662;2023-12-20T15:34:57;3.90;;;1.70;;
31906;SDS011;18455;50.858;13.662;2023-12-20T15:39:58;4.53;;;1.93;;
31906;SDS011;18455;50.858;13.662;2023-12-20T15:44:58;4.33;;;2.10;;
31906;SDS011;18455;50.858;13.662;2023-12-20T15:49:58;4.00;;;2.00;;
31906;SDS011;18455;50.858;13.662;2023-12-20T15:54:58;3.57;;;2.10;;
31906;SDS011;18455;50.858;13.662;2023-12-20T15:59:58;5.17;;;2.23;;
31906;SDS011;18455;50.858;13.662;2023-12-20T16:04:59;2.97;;;1.77;;
31906;SDS011;18455;50.858;13.662;2023-12-20T16:09:59;3.47;;;1.70;;
31906;SDS011;18455;50.858;13.662;2023-12-20T16:15:00;1.80;;;1.70;;
31906;SDS011;18455;50.858;13.662;2023-12-20T16:20:01;4.60;;;2.53;;
31906;SDS011;18455;50.858;13.662;2023-12-20T16:25:01;2.50;;;1.83;;
31906;SDS011;18455;50.858;13.662;2023-12-20T16:30:02;6.53;;;1.93;;
31906;SDS011;18455;50.858;13.662;2023-12-20T16:35:02;2.50;;;1.70;;
31906;SDS011;18455;50.858;13.662;2023-12-20T16:40:06;3.33;;;1.90;;
31906;SDS011;18455;50.858;13.662;2023-12-20T16:45:06;4.63;;;2.07;;
31906;SDS011;18455;50.858;13.662;2023-12-20T16:50:07;3.10;;;1.87;;
31906;SDS011;18455;50.858;13.662;2023-12-20T16:55:09;7.73;;;3.43;;
31906;SDS011;18455;50.858;13.662;2023-12-20T17:00:10;2.83;;;1.60;;
31906;SDS011;18455;50.858;13.662;2023-12-20T17:05:10;3.90;;;2.10;;
31906;SDS011;18455;50.858;13.662;2023-12-20T17:10:10;10.87;;;5.67;;
31906;SDS011;18455;50.858;13.662;2023-12-20T17:15:10;19.03;;;7.57;;
31906;SDS011;18455;50.858;13.662;2023-12-20T17:20:11;10.83;;;4.50;;
31906;SDS011;18455;50.858;13.662;2023-12-20T17:25:11;14.67;;;10.47;;
31906;SDS011;18455;50.858;13.662;2023-12-20T17:30:13;7.90;;;2.03;;
31906;SDS011;18455;50.858;13.662;2023-12-20T17:35:31;3.97;;;1.97;;
31906;SDS011;18455;50.858;13.662;2023-12-20T17:40:54;4.03;;;2.10;;
31906;SDS011;18455;50.858;13.662;2023-12-20T17:52:08;7.03;;;2.33;;
31906;SDS011;18455;50.858;13.662;2023-12-20T17:57:09;8.33;;;2.50;;
31906;SDS011;18455;50.858;13.662;2023-12-20T18:02:09;4.03;;;2.20;;
31906;SDS011;18455;50.858;13.662;2023-12-20T18:07:09;2.23;;;1.97;;
31906;SDS011;18455;50.858;13.662;2023-12-20T18:12:10;4.87;;;2.87;;
31906;SDS011;18455;50.858;13.662;2023-12-20T18:17:10;7.43;;;3.23;;
31906;SDS011;18455;50.858;13.662;2023-12-20T18:22:11;4.73;;;2.53;;
31906;SDS011;18455;50.858;13.662;2023-12-20T18:27:11;5.17;;;2.80;;
31906;SDS011;18455;50.858;13.662;2023-12-20T18:32:11;8.50;;;3.00;;
31906;SDS011;18455;50.858;13.662;2023-12-20T18:37:11;4.37;;;2.90;;
31906;SDS011;18455;50.858;13.662;2023-12-20T18:42:11;7.93;;;3.63;;
31906;SDS011;18455;50.858;13.662;2023-12-20T18:47:12;5.57;;;2.77;;
31906;SDS011;18455;50.858;13.662;2023-12-20T18:52:12;5.70;;;3.00;;
31906;SDS011;18455;50.858;13.662;2023-12-20T18:57:12;3.77;;;3.30;;
31906;SDS011;18455;50.858;13.662;2023-12-20T19:02:13;4.87;;;2.63;;
31906;SDS011;18455;50.858;13.662;2023-12-20T19:07:13;5.30;;;2.50;;
31906;SDS011;18455;50.858;13.662;2023-12-20T19:12:13;3.92;;;2.50;;
31906;SDS011;18455;50.858;13.662;2023-12-20T19:17:14;4.50;;;2.30;;
31906;SDS011;18455;50.858;13.662;2023-12-20T19:22:14;5.80;;;2.50;;
31906;SDS011;18455;50.858;13.662;2023-12-20T19:27:15;5.77;;;2.60;;
31906;SDS011;18455;50.858;13.662;2023-12-20T19:32:15;7.23;;;2.50;;
31906;SDS011;18455;50.858;13.662;2023-12-20T19:37:16;3.60;;;2.37;;
31906;SDS011;18455;50.858;13.662;2023-12-20T19:42:19;6.07;;;2.90;;
31906;SDS011;18455;50.858;13.662;2023-12-20T19:47:20;2.67;;;2.47;;
31906;SDS011;18455;50.858;13.662;2023-12-20T19:52:20;3.53;;;2.90;;
31906;SDS011;18455;50.858;13.662;2023-12-20T19:57:20;2.73;;;2.53;;
31906;SDS011;18455;50.858;13.662;2023-12-20T20:02:21;3.50;;;2.20;;
31906;SDS011;18455;50.858;13.662;2023-12-20T20:07:21;3.20;;;2.20;;
31906;SDS011;18455;50.858;13.662;2023-12-20T20:12:23;3.73;;;1.93;;
31906;SDS011;18455;50.858;13.662;2023-12-20T20:17:23;2.33;;;1.50;;
31906;SDS011;18455;50.858;13.662;2023-12-20T20:22:23;1.70;;;1.60;;
31906;SDS011;18455;50.858;13.662;2023-12-20T20:27:24;1.70;;;1.60;;
31906;SDS011;18455;50.858;13.662;2023-12-20T20:32:24;2.20;;;1.80;;
31906;SDS011;18455;50.858;13.662;2023-12-20T20:37:24;1.70;;;1.60;;
31906;SDS011;18455;50.858;13.662;2023-12-20T20:42:24;2.23;;;2.03;;
31906;SDS011;18455;50.858;13.662;2023-12-20T20:47:25;2.33;;;1.53;;
31906;SDS011;18455;50.858;13.662;2023-12-20T20:52:25;1.50;;;1.40;;
31906;SDS011;18455;50.858;13.662;2023-12-20T20:57:25;1.90;;;1.80;;
31906;SDS011;18455;50.858;13.662;2023-12-20T21:02:26;3.17;;;1.50;;
31906;SDS011;18455;50.858;13.662;2023-12-20T21:07:26;1.07;;;1.00;;
31906;SDS011;18455;50.858;13.662;2023-12-20T21:12:26;1.13;;;1.10;;
31906;SDS011;18455;50.858;13.662;2023-12-20T21:17:28;2.50;;;1.50;;
31906;SDS011;18455;50.858;13.662;2023-12-20T21:22:28;2.00;;;1.80;;
31906;SDS011;18455;50.858;13.662;2023-12-20T21:27:28;1.90;;;1.20;;
31906;SDS011;18455;50.858;13.662;2023-12-20T21:32:30;3.63;;;1.60;;
31906;SDS011;18455;50.858;13.662;2023-12-20T21:37:30;3.00;;;1.70;;
31906;SDS011;18455;50.858;13.662;2023-12-20T21:42:31;6.37;;;2.10;;
31906;SDS011;18455;50.858;13.662;2023-12-20T21:47:31;1.73;;;1.30;;
31906;SDS011;18455;50.858;13.662;2023-12-20T21:52:31;1.50;;;1.40;;
31906;SDS011;18455;50.858;13.662;2023-12-20T21:57:31;2.40;;;1.30;;
31906;SDS011;18455;50.858;13.662;2023-12-20T22:02:32;2.00;;;1.80;;
31906;SDS011;18455;50.858;13.662;2023-12-20T22:07:32;2.13;;;1.37;;
31906;SDS011;18455;50.858;13.662;2023-12-20T22:12:32;1.73;;;1.40;;
31906;SDS011;18455;50.858;13.662;2023-12-20T22:17:32;1.10;;;1.10;;
31906;SDS011;18455;50.858;13.662;2023-12-20T22:22:33;1.37;;;1.23;;
31906;SDS011;18455;50.858;13.662;2023-12-20T22:27:33;2.40;;;1.30;;
31906;SDS011;18455;50.858;13.662;2023-12-20T22:32:33;1.43;;;1.10;;
31906;SDS011;18455;50.858;13.662;2023-12-20T22:37:33;1.40;;;1.23;;
31906;SDS011;18455;50.858;13.662;2023-12-20T22:42:33;2.50;;;1.20;;
31906;SDS011;18455;50.858;13.662;2023-12-20T22:47:34;2.37;;;1.00;;
31906;SDS011;18455;50.858;13.662;2023-12-20T22:52:34;1.47;;;1.37;;
31906;SDS011;18455;50.858;13.662;2023-12-20T22:57:34;2.70;;;1.40;;
31906;SDS011;18455;50.858;13.662;2023-12-20T23:02:34;6.13;;;2.30;;
31906;SDS011;18455;50.858;13.662;2023-12-20T23:07:34;1.37;;;1.20;;
31906;SDS011;18455;50.858;13.662;2023-12-20T23:12:35;2.03;;;1.30;;
31906;SDS011;18455;50.858;13.662;2023-12-20T23:17:36;1.67;;;1.30;;
31906;SDS011;18455;50.858;13.662;2023-12-20T23:22:36;0.97;;;0.97;;
31906;SDS011;18455;50.858;13.662;2023-12-20T23:27:36;1.50;;;1.40;;
31906;SDS011;18455;50.858;13.662;2023-12-20T23:32:36;1.67;;;1.13;;
31906;SDS011;18455;50.858;13.662;2023-12-20T23:37:37;1.90;;;1.10;;
31906;SDS011;18455;50.858;13.662;2023-12-20T23:42:37;2.93;;;1.00;;
31906;SDS011;18455;50.858;13.662;2023-12-20T23:47:37;1.27;;;1.17;;
31906;SDS011;18455;50.858;13.662;2023-12-20T23:52:38;1.10;;;1.10;;
31906;SDS011;18455;50.858;13.662;2023-12-20T23:57:38;2.63;;;1.23;;
